Time;durP1;ratioP1;P1;durP2;ratioP2;P2;SDS_P1;SDS_P2;PMS_P1;PMS_P2;Temp;Humidity;BMP_temperature;BMP_pressure;BME280_temperature;BME280_humidity;BME280_pressure;Samples;Min_cycle;Max_cycle;Signal;HPM_P1;HPM_P2
2022/10/03 00:01:34;;;;;;;8.80;5.32;;;;;;;;;;5116802;27;20606;-72
2022/10/03 00:04:05;;;;;;;9.00;5.10;;;;;;;;;;5107749;28;20489;-72
2022/10/03 00:06:43;;;;;;;10.65;5.75;;;;;;;;;;5107430;27;20134;-71
2022/10/03 00:09:26;;;;;;;10.68;5.53;;;;;;;;;;5116500;27;20034;-72
2022/10/03 00:12:10;;;;;;;11.32;6.00;;;;;;;;;;5115823;27;20028;-72
2022/10/03 00:15:07;;;;;;;9.57;5.53;;;;;;;;;;5115757;27;20034;-72
2022/10/03 00:17:41;;;;;;;9.55;5.07;;;;;;;;;;5087755;27;20040;-72
2022/10/03 00:20:16;;;;;;;11.60;5.20;;;;;;;;;;5115283;27;20027;-72
2022/10/03 00:22:44;;;;;;;9.82;5.00;;;;;;;;;;5112412;27;20035;-72
2022/10/03 00:25:12;;;;;;;8.88;4.90;;;;;;;;;;5113499;27;20031;-72
2022/10/03 00:27:43;;;;;;;8.18;4.60;;;;;;;;;;5113727;27;20076;-72
2022/10/03 00:30:09;;;;;;;12.07;5.60;;;;;;;;;;5103675;28;20026;-72
2022/10/03 00:32:52;;;;;;;8.63;4.93;;;;;;;;;;5114405;27;20110;-72
2022/10/03 00:35:20;;;;;;;9.45;4.43;;;;;;;;;;5114379;27;20373;-71
2022/10/03 00:38:05;;;;;;;9.32;4.47;;;;;;;;;;5116502;27;20389;-72
2022/10/03 00:40:40;;;;;;;6.53;4.35;;;;;;;;;;5120704;27;20041;-72
2022/10/03 00:43:14;;;;;;;9.50;4.28;;;;;;;;;;5117952;28;20026;-72
2022/10/03 00:45:49;;;;;;;6.50;4.03;;;;;;;;;;5119682;28;20015;-72
2022/10/03 00:48:18;;;;;;;5.47;3.45;;;;;;;;;;5116482;28;20524;-72
2022/10/03 00:50:58;;;;;;;6.05;3.85;;;;;;;;;;5113854;28;20031;-72
2022/10/03 00:53:46;;;;;;;6.97;4.10;;;;;;;;;;5114826;28;20031;-72
2022/10/03 00:56:24;;;;;;;8.80;4.35;;;;;;;;;;5116614;28;20023;-72
2022/10/03 00:58:49;;;;;;;9.55;4.60;;;;;;;;;;5118971;28;20523;-72
2022/10/03 01:01:23;;;;;;;9.43;4.80;;;;;;;;;;5102248;28;20137;-72
2022/10/03 01:03:54;;;;;;;10.68;4.22;;;;;;;;;;5115448;28;20065;-72
2022/10/03 01:06:27;;;;;;;8.15;4.30;;;;;;;;;;5121271;28;20026;-72
2022/10/03 01:09:11;;;;;;;8.23;4.07;;;;;;;;;;5120234;28;20034;-72
2022/10/03 01:11:42;;;;;;;5.97;3.53;;;;;;;;;;5112248;28;20019;-72
2022/10/03 01:14:11;;;;;;;8.45;3.67;;;;;;;;;;5108427;28;20100;-72
2022/10/03 01:16:42;;;;;;;9.75;3.60;;;;;;;;;;5116000;28;20027;-72
2022/10/03 01:19:26;;;;;;;4.43;3.08;;;;;;;;;;5118014;28;20035;-72
2022/10/03 01:22:10;;;;;;;5.65;3.10;;;;;;;;;;5110160;28;20025;-72
2022/10/03 01:24:39;;;;;;;5.00;3.03;;;;;;;;;;5101737;28;20027;-73
2022/10/03 01:27:05;;;;;;;6.97;2.63;;;;;;;;;;5119646;28;20057;-72
2022/10/03 01:32:23;;;;;;;4.70;2.35;;;;;;;;;;5120932;28;20042;-72
2022/10/03 01:34:51;;;;;;;4.00;2.40;;;;;;;;;;5116675;28;20072;-72
2022/10/03 01:37:28;;;;;;;4.43;2.00;;;;;;;;;;5103894;28;20027;-72
2022/10/03 01:40:20;;;;;;;4.63;1.75;;;;;;;;;;5122871;27;20024;-72
2022/10/03 01:42:46;;;;;;;2.60;1.83;;;;;;;;;;5119038;27;20112;-72
2022/10/03 01:45:35;;;;;;;3.70;2.00;;;;;;;;;;5122254;27;20062;-72
2022/10/03 01:48:03;;;;;;;2.97;1.70;;;;;;;;;;5124812;27;20019;-72
2022/10/03 01:50:48;;;;;;;3.13;1.70;;;;;;;;;;5124867;27;20025;-72
2022/10/03 01:53:16;;;;;;;2.88;2.00;;;;;;;;;;5117334;27;20050;-72
2022/10/03 01:55:50;;;;;;;2.63;1.70;;;;;;;;;;5119308;27;20385;-72
2022/10/03 01:58:25;;;;;;;2.90;1.60;;;;;;;;;;5119566;27;20031;-72
2022/10/03 02:01:10;;;;;;;3.28;1.70;;;;;;;;;;5123535;27;20053;-72
2022/10/03 02:03:45;;;;;;;3.78;1.70;;;;;;;;;;5121075;27;20031;-72
2022/10/03 02:06:26;;;;;;;2.70;1.80;;;;;;;;;;5126497;27;20106;-72
2022/10/03 02:08:52;;;;;;;5.10;1.73;;;;;;;;;;5122108;27;20031;-72
2022/10/03 02:11:30;;;;;;;2.22;1.23;;;;;;;;;;5118025;27;20019;-72
2022/10/03 02:14:28;;;;;;;2.65;1.40;;;;;;;;;;5118994;27;20023;-72
2022/10/03 02:17:13;;;;;;;2.65;1.60;;;;;;;;;;5055209;27;20039;-72
2022/10/03 02:19:49;;;;;;;2.42;1.50;;;;;;;;;;5119580;27;20397;-71
2022/10/03 02:22:27;;;;;;;3.40;1.63;;;;;;;;;;5119340;27;20102;-72
2022/10/03 02:25:04;;;;;;;1.90;1.40;;;;;;;;;;5116835;27;20591;-72
2022/10/03 02:27:51;;;;;;;3.08;1.35;;;;;;;;;;5123727;27;20511;-72
2022/10/03 02:30:16;;;;;;;4.03;1.77;;;;;;;;;;5108928;27;20382;-72
2022/10/03 02:32:51;;;;;;;6.20;1.63;;;;;;;;;;5118672;27;20035;-72
2022/10/03 02:35:22;;;;;;;2.45;1.60;;;;;;;;;;5119832;27;20024;-72
2022/10/03 02:37:50;;;;;;;3.15;1.65;;;;;;;;;;5116979;27;20034;-72
2022/10/03 02:40:42;;;;;;;5.22;1.90;;;;;;;;;;5117863;27;20039;-72
2022/10/03 02:43:10;;;;;;;5.40;2.20;;;;;;;;;;5120994;27;20097;-72
2022/10/03 02:45:56;;;;;;;4.28;2.22;;;;;;;;;;5118751;27;20170;-72
2022/10/03 02:48:22;;;;;;;2.90;1.95;;;;;;;;;;5109778;27;20032;-72
2022/10/03 02:50:59;;;;;;;2.72;2.05;;;;;;;;;;5121377;27;20046;-72
2022/10/03 02:53:43;;;;;;;3.13;1.85;;;;;;;;;;5110507;27;20019;-72
2022/10/03 02:56:27;;;;;;;3.40;1.90;;;;;;;;;;5125154;27;20019;-72
2022/10/03 02:59:11;;;;;;;3.90;1.80;;;;;;;;;;5100511;27;21754;-72
2022/10/03 03:01:43;;;;;;;4.15;1.80;;;;;;;;;;5120095;27;20032;-72
2022/10/03 03:04:14;;;;;;;2.53;2.00;;;;;;;;;;5116613;27;20026;-71
2022/10/03 03:06:57;;;;;;;4.35;2.30;;;;;;;;;;5120642;27;20046;-73
2022/10/03 03:09:41;;;;;;;4.03;2.20;;;;;;;;;;5101245;27;20755;-72
2022/10/03 03:12:09;;;;;;;3.10;2.20;;;;;;;;;;5122027;27;20088;-72
2022/10/03 03:14:56;;;;;;;5.78;2.60;;;;;;;;;;5117354;27;20024;-72
2022/10/03 03:17:24;;;;;;;5.35;2.60;;;;;;;;;;5085252;27;20054;-72
2022/10/03 03:20:04;;;;;;;4.32;2.60;;;;;;;;;;5120707;27;20546;-71
2022/10/03 03:22:40;;;;;;;5.85;2.53;;;;;;;;;;5124053;27;20080;-72
2022/10/03 03:25:08;;;;;;;4.78;2.50;;;;;;;;;;5104213;27;20048;-72
2022/10/03 03:27:37;;;;;;;4.47;2.70;;;;;;;;;;5118838;27;20055;-72
2022/10/03 03:30:08;;;;;;;4.32;2.60;;;;;;;;;;5114522;27;20103;-73
2022/10/03 03:32:33;;;;;;;3.10;2.20;;;;;;;;;;5119994;27;20058;-72
2022/10/03 03:35:12;;;;;;;6.93;2.70;;;;;;;;;;5115358;27;20441;-72
2022/10/03 03:37:55;;;;;;;6.43;3.08;;;;;;;;;;5114156;27;20482;-72
2022/10/03 03:40:34;;;;;;;3.38;2.10;;;;;;;;;;5122586;27;20036;-72
2022/10/03 03:43:18;;;;;;;5.35;2.45;;;;;;;;;;5118251;27;20031;-71
2022/10/03 03:45:49;;;;;;;3.80;2.35;;;;;;;;;;5117745;27;20032;-72
2022/10/03 03:48:14;;;;;;;4.45;2.22;;;;;;;;;;5118748;27;21008;-72
2022/10/03 03:50:56;;;;;;;3.40;2.00;;;;;;;;;;5116266;27;20076;-72
2022/10/03 03:53:30;;;;;;;6.10;2.10;;;;;;;;;;5117603;27;20039;-72
2022/10/03 03:56:08;;;;;;;4.32;2.10;;;;;;;;;;5119465;27;20027;-72
2022/10/03 03:58:39;;;;;;;3.53;2.35;;;;;;;;;;5121643;27;20032;-72
2022/10/03 04:01:19;;;;;;;4.93;2.00;;;;;;;;;;5107224;27;20061;-72
2022/10/03 04:03:57;;;;;;;3.45;2.47;;;;;;;;;;5114689;27;20035;-72
2022/10/03 04:06:25;;;;;;;3.13;2.13;;;;;;;;;;5115705;27;20020;-72
2022/10/03 04:08:50;;;;;;;5.30;2.20;;;;;;;;;;5111547;27;20050;-72
2022/10/03 04:11:35;;;;;;;3.80;2.03;;;;;;;;;;5119684;27;20019;-72
2022/10/03 04:14:06;;;;;;;10.30;3.15;;;;;;;;;;5116957;27;20047;-72
2022/10/03 04:19:47;;;;;;;2.95;2.03;;;;;;;;;;5120682;27;20031;-73
2022/10/03 04:22:41;;;;;;;2.58;1.98;;;;;;;;;;5118519;27;20054;-69
2022/10/03 04:25:16;;;;;;;3.10;2.13;;;;;;;;;;5106534;27;20043;-68
2022/10/03 04:28:00;;;;;;;4.10;1.95;;;;;;;;;;5116469;27;20065;-69
2022/10/03 04:30:52;;;;;;;3.50;2.00;;;;;;;;;;5120225;27;20495;-69
2022/10/03 04:33:20;;;;;;;3.53;1.80;;;;;;;;;;5096763;27;20035;-68
2022/10/03 04:35:45;;;;;;;2.92;1.77;;;;;;;;;;5118864;27;20030;-68
2022/10/03 04:38:25;;;;;;;4.33;1.90;;;;;;;;;;5117808;27;20031;-68
2022/10/03 04:40:54;;;;;;;4.03;2.17;;;;;;;;;;5117874;27;20145;-68
2022/10/03 04:43:39;;;;;;;6.20;1.80;;;;;;;;;;5115032;27;20236;-71
2022/10/03 04:46:04;;;;;;;3.95;1.80;;;;;;;;;;5111958;28;20294;-71
2022/10/03 04:48:33;;;;;;;3.58;1.75;;;;;;;;;;5105911;28;20031;-72
2022/10/03 04:51:10;;;;;;;3.53;1.92;;;;;;;;;;5114253;28;20028;-72
2022/10/03 04:53:51;;;;;;;2.45;1.77;;;;;;;;;;5116909;28;20034;-72
2022/10/03 04:56:16;;;;;;;4.75;1.80;;;;;;;;;;5117763;28;20056;-71
2022/10/03 04:58:54;;;;;;;5.20;2.00;;;;;;;;;;5116709;28;20020;-71
2022/10/03 05:01:22;;;;;;;3.63;2.05;;;;;;;;;;5113385;28;20047;-71
2022/10/03 05:03:52;;;;;;;2.45;1.80;;;;;;;;;;5115218;28;20031;-72
2022/10/03 05:06:34;;;;;;;6.38;2.20;;;;;;;;;;5118275;28;20385;-72
2022/10/03 05:09:03;;;;;;;3.00;1.75;;;;;;;;;;5115126;28;20552;-71
2022/10/03 05:11:28;;;;;;;4.10;1.83;;;;;;;;;;5114691;28;20027;-72
2022/10/03 05:14:12;;;;;;;5.23;2.00;;;;;;;;;;5114122;28;20076;-72
2022/10/03 05:16:50;;;;;;;4.60;2.35;;;;;;;;;;5101893;27;20031;-72
2022/10/03 05:19:25;;;;;;;3.95;2.00;;;;;;;;;;5123155;27;20019;-71
2022/10/03 05:22:10;;;;;;;4.22;1.92;;;;;;;;;;5119504;27;20019;-71
2022/10/03 05:24:43;;;;;;;3.85;2.28;;;;;;;;;;5119854;27;20033;-72
2022/10/03 05:27:21;;;;;;;5.28;1.88;;;;;;;;;;5116882;27;20035;-71
2022/10/03 05:30:05;;;;;;;3.85;2.10;;;;;;;;;;5119034;27;20027;-72
2022/10/03 05:32:40;;;;;;;5.93;2.17;;;;;;;;;;5117327;27;20118;-71
2022/10/03 05:35:11;;;;;;;2.75;2.25;;;;;;;;;;5115191;27;20012;-71
2022/10/03 05:37:42;;;;;;;6.00;2.20;;;;;;;;;;5119158;27;20024;-73
2022/10/03 05:40:15;;;;;;;3.30;2.08;;;;;;;;;;5116144;27;20027;-72
2022/10/03 05:42:54;;;;;;;4.60;2.30;;;;;;;;;;5120298;27;20677;-72
2022/10/03 05:45:23;;;;;;;4.70;2.55;;;;;;;;;;5121173;27;20409;-71
2022/10/03 05:48:00;;;;;;;4.82;2.38;;;;;;;;;;5118590;27;20157;-72
2022/10/03 05:50:48;;;;;;;3.42;2.20;;;;;;;;;;5120627;27;20027;-71
2022/10/03 05:53:32;;;;;;;4.65;2.45;;;;;;;;;;5118070;27;20023;-71
2022/10/03 05:56:13;;;;;;;2.67;2.30;;;;;;;;;;5121500;27;20073;-72
2022/10/03 05:58:39;;;;;;;4.53;2.60;;;;;;;;;;5118388;27;20033;-72
2022/10/03 06:01:20;;;;;;;6.55;2.47;;;;;;;;;;5117719;27;20525;-72
2022/10/03 06:03:48;;;;;;;3.40;2.30;;;;;;;;;;5117567;27;20027;-72
2022/10/03 06:06:33;;;;;;;3.80;2.50;;;;;;;;;;5119375;27;20019;-68
2022/10/03 06:09:07;;;;;;;5.65;2.60;;;;;;;;;;5120108;27;20027;-68
2022/10/03 06:11:35;;;;;;;6.97;2.70;;;;;;;;;;5121314;27;20035;-68
2022/10/03 06:14:23;;;;;;;5.20;3.00;;;;;;;;;;5111461;27;20031;-67
2022/10/03 06:16:57;;;;;;;4.32;2.70;;;;;;;;;;5121560;27;20363;-68
2022/10/03 06:19:32;;;;;;;5.38;2.75;;;;;;;;;;5121468;27;20163;-68
2022/10/03 06:22:16;;;;;;;4.07;2.90;;;;;;;;;;5125613;27;20377;-67
2022/10/03 06:25:00;;;;;;;4.60;2.67;;;;;;;;;;5121919;27;20027;-67
2022/10/03 06:27:51;;;;;;;6.13;2.67;;;;;;;;;;5095412;28;20044;-72
2022/10/03 06:30:20;;;;;;;6.07;3.00;;;;;;;;;;5078100;28;20024;-72
2022/10/03 06:32:56;;;;;;;5.72;2.95;;;;;;;;;;5076338;28;20414;-72
2022/10/03 06:35:24;;;;;;;4.80;2.97;;;;;;;;;;5078518;28;20025;-72
2022/10/03 06:37:52;;;;;;;3.95;2.60;;;;;;;;;;5078708;28;20111;-72
2022/10/03 06:40:17;;;;;;;6.35;3.40;;;;;;;;;;5081021;28;20122;-71
2022/10/03 06:42:50;;;;;;;5.17;3.10;;;;;;;;;;5080785;28;20111;-72
2022/10/03 06:45:38;;;;;;;5.80;3.72;;;;;;;;;;5073286;28;20428;-72
2022/10/03 06:48:09;;;;;;;6.43;3.00;;;;;;;;;;5075731;28;20138;-72
2022/10/03 06:50:47;;;;;;;7.28;3.42;;;;;;;;;;5076032;28;20036;-72
2022/10/03 06:53:18;;;;;;;5.97;3.33;;;;;;;;;;5071325;28;20147;-72
2022/10/03 06:55:49;;;;;;;7.75;3.65;;;;;;;;;;5070666;28;20024;-71
2022/10/03 06:58:33;;;;;;;8.30;3.47;;;;;;;;;;5080207;28;20363;-72
2022/10/03 07:01:12;;;;;;;8.63;3.83;;;;;;;;;;5076392;28;20574;-71
2022/10/03 07:03:37;;;;;;;;;;;;;;;;;;5088421;28;20036;-72
2022/10/03 07:06:09;;;;;;;9.00;3.65;;;;;;;;;;5078888;28;19916;-71
2022/10/03 07:08:35;;;;;;;7.43;3.60;;;;;;;;;;5075848;28;20028;-72
2022/10/03 07:11:06;;;;;;;5.93;3.20;;;;;;;;;;5077047;28;20028;-72
2022/10/03 07:13:48;;;;;;;5.13;3.50;;;;;;;;;;5076856;28;20043;-72
2022/10/03 07:16:17;;;;;;;7.38;3.42;;;;;;;;;;5080945;28;20053;-72
2022/10/03 07:18:45;;;;;;;6.63;2.95;;;;;;;;;;5072481;28;20026;-68
2022/10/03 07:21:30;;;;;;;7.45;3.65;;;;;;;;;;5074077;28;20025;-69
2022/10/03 07:23:55;;;;;;;7.60;3.38;;;;;;;;;;5077154;28;20021;-69
2022/10/03 07:26:38;;;;;;;6.83;3.60;;;;;;;;;;5077259;28;20588;-68
2022/10/03 07:29:07;;;;;;;7.95;3.35;;;;;;;;;;5117845;27;20287;-69
2022/10/03 07:31:35;;;;;;;4.60;3.40;;;;;;;;;;5114072;27;20357;-72
2022/10/03 07:34:00;;;;;;;6.50;3.72;;;;;;;;;;5110367;27;20046;-70
2022/10/03 07:39:32;;;;;;;11.95;3.55;;;;;;;;;;5115150;27;20034;-71
2022/10/03 07:42:16;;;;;;;5.63;3.20;;;;;;;;;;5111715;27;20034;-72
2022/10/03 07:44:41;;;;;;;6.05;3.42;;;;;;;;;;5116123;27;20019;-72
2022/10/03 07:47:08;;;;;;;10.27;3.90;;;;;;;;;;5118671;27;20032;-72
2022/10/03 07:49:58;;;;;;;8.32;3.70;;;;;;;;;;5116375;27;20080;-72
2022/10/03 07:52:23;;;;;;;5.90;3.05;;;;;;;;;;5116802;27;20054;-73
2022/10/03 07:55:07;;;;;;;5.53;3.03;;;;;;;;;;5113616;27;20047;-73
2022/10/03 07:57:38;;;;;;;8.73;3.38;;;;;;;;;;5116066;27;20027;-73
2022/10/03 08:00:21;;;;;;;5.97;3.35;;;;;;;;;;5117829;27;20019;-73
2022/10/03 08:02:49;;;;;;;7.97;3.53;;;;;;;;;;5110482;27;20103;-72
2022/10/03 08:05:17;;;;;;;7.53;3.85;;;;;;;;;;5116229;27;20114;-73
2022/10/03 08:07:44;;;;;;;9.40;3.53;;;;;;;;;;5121124;27;20073;-72
2022/10/03 08:10:28;;;;;;;11.40;3.90;;;;;;;;;;5118366;27;20024;-72
2022/10/03 08:13:22;;;;;;;8.60;3.47;;;;;;;;;;5114653;27;20059;-73
2022/10/03 08:16:06;;;;;;;10.80;3.65;;;;;;;;;;5106636;27;20075;-74
2022/10/03 08:18:32;;;;;;;9.07;3.58;;;;;;;;;;5118901;27;20020;-72
2022/10/03 08:21:02;;;;;;;5.07;3.33;;;;;;;;;;5114567;27;20076;-72
2022/10/03 08:23:45;;;;;;;6.60;3.53;;;;;;;;;;5118211;27;20030;-72
2022/10/03 08:26:16;;;;;;;8.80;3.40;;;;;;;;;;5114550;27;20019;-72
2022/10/03 08:28:53;;;;;;;5.93;2.78;;;;;;;;;;5115205;27;20081;-71
2022/10/03 08:31:18;;;;;;;9.35;3.92;;;;;;;;;;5117085;27;20023;-72
2022/10/03 08:33:59;;;;;;;6.30;2.97;;;;;;;;;;5113671;27;20587;-71
2022/10/03 08:36:27;;;;;;;4.55;2.70;;;;;;;;;;5113413;27;20385;-72
2022/10/03 08:38:55;;;;;;;5.18;2.97;;;;;;;;;;5117533;27;20673;-71
2022/10/03 08:41:35;;;;;;;5.55;2.95;;;;;;;;;;5114039;28;20035;-72
2022/10/03 08:44:19;;;;;;;6.20;2.70;;;;;;;;;;5117011;27;20059;-71
2022/10/03 08:47:01;;;;;;;4.20;2.58;;;;;;;;;;5113978;28;20031;-71
2022/10/03 08:49:39;;;;;;;5.53;2.58;;;;;;;;;;5099260;28;20119;-72
2022/10/03 08:52:05;;;;;;;5.95;2.60;;;;;;;;;;5107323;28;20426;-71
2022/10/03 08:54:31;;;;;;;11.00;3.00;;;;;;;;;;5114341;28;20043;-71
2022/10/03 08:57:16;;;;;;;6.87;2.70;;;;;;;;;;5115199;28;20027;-72
2022/10/03 08:59:47;;;;;;;6.70;3.35;;;;;;;;;;5116016;28;20316;-72
2022/10/03 09:02:31;;;;;;;10.68;3.05;;;;;;;;;;5119160;28;20027;-72
2022/10/03 09:05:05;;;;;;;4.55;2.60;;;;;;;;;;5118682;28;20054;-73
2022/10/03 09:07:49;;;;;;;6.22;2.80;;;;;;;;;;5117834;28;20112;-71
2022/10/03 09:10:33;;;;;;;8.40;2.75;;;;;;;;;;5117174;28;20028;-72
2022/10/03 09:13:14;;;;;;;6.45;2.40;;;;;;;;;;5116329;28;20027;-72
2022/10/03 09:15:57;;;;;;;6.20;2.10;;;;;;;;;;5113877;28;20025;-71
2022/10/03 09:18:32;;;;;;;5.75;2.50;;;;;;;;;;5105453;28;20505;-72
2022/10/03 09:21:16;;;;;;;5.90;2.55;;;;;;;;;;5112227;28;20019;-72
2022/10/03 09:23:53;;;;;;;6.25;3.00;;;;;;;;;;5122131;28;20077;-72
2022/10/03 09:26:31;;;;;;;5.18;2.58;;;;;;;;;;5120116;28;20736;-72
2022/10/03 09:28:56;;;;;;;6.68;2.75;;;;;;;;;;5117663;28;20046;-72
2022/10/03 09:31:33;;;;;;;7.53;3.10;;;;;;;;;;5114032;28;20031;-72
2022/10/03 09:34:08;;;;;;;7.13;2.40;;;;;;;;;;5115069;28;20023;-72
2022/10/03 09:36:51;;;;;;;6.03;2.80;;;;;;;;;;5115753;28;20030;-71
2022/10/03 09:39:29;;;;;;;7.07;2.55;;;;;;;;;;5109986;28;20019;-71
2022/10/03 09:41:54;;;;;;;8.73;2.25;;;;;;;;;;5117162;28;20024;-73
2022/10/03 09:44:34;;;;;;;9.47;2.50;;;;;;;;;;5100813;28;20386;-72
2022/10/03 09:47:22;;;;;;;4.93;2.00;;;;;;;;;;5109984;28;21540;-70
2022/10/03 09:49:59;;;;;;;3.17;1.75;;;;;;;;;;5104277;28;20136;-71
2022/10/03 09:52:31;;;;;;;3.67;2.20;;;;;;;;;;5113390;28;20031;-70
2022/10/03 09:55:00;;;;;;;5.50;1.90;;;;;;;;;;5111810;28;20077;-71
2022/10/03 09:57:44;;;;;;;4.27;2.00;;;;;;;;;;5112512;28;20020;-70
2022/10/03 10:00:21;;;;;;;7.07;2.35;;;;;;;;;;5117369;28;20023;-70
2022/10/03 10:02:46;;;;;;;4.68;1.80;;;;;;;;;;5120518;27;20016;-70
2022/10/03 10:05:17;;;;;;;5.73;1.77;;;;;;;;;;5119101;27;20377;-70
2022/10/03 10:08:03;;;;;;;6.70;2.33;;;;;;;;;;5115785;27;20047;-70
2022/10/03 10:10:47;;;;;;;2.88;1.70;;;;;;;;;;5105594;27;20043;-71
2022/10/03 10:13:31;;;;;;;4.53;1.80;;;;;;;;;;5120515;27;20038;-70
2022/10/03 10:16:15;;;;;;;5.25;1.80;;;;;;;;;;5107927;27;21591;-71
2022/10/03 10:18:53;;;;;;;7.75;1.83;;;;;;;;;;5106731;27;20027;-70
2022/10/03 10:21:27;;;;;;;5.32;1.73;;;;;;;;;;5114951;27;20016;-70
2022/10/03 10:24:10;;;;;;;3.05;1.98;;;;;;;;;;5117690;27;20115;-70
2022/10/03 10:26:54;;;;;;;4.13;1.90;;;;;;;;;;5119440;27;20050;-70
2022/10/03 10:29:33;;;;;;;6.88;1.75;;;;;;;;;;5118602;27;20144;-70
2022/10/03 10:31:58;;;;;;;2.70;1.70;;;;;;;;;;5098646;27;20192;-70
2022/10/03 10:34:53;;;;;;;9.40;2.20;;;;;;;;;;5118793;27;20512;-70
2022/10/03 10:37:36;;;;;;;3.95;1.75;;;;;;;;;;5030810;28;20041;-70
2022/10/03 10:40:09;;;;;;;3.72;1.83;;;;;;;;;;5028924;28;20026;-69
2022/10/03 10:42:35;;;;;;;4.53;1.90;;;;;;;;;;5032648;28;20045;-70
2022/10/03 10:45:00;;;;;;;4.68;1.60;;;;;;;;;;5032401;28;20033;-70
2022/10/03 10:47:37;;;;;;;5.13;2.20;;;;;;;;;;5032869;28;20120;-69
2022/10/03 10:50:02;;;;;;;5.57;2.40;;;;;;;;;;5016702;28;20364;-70
2022/10/03 10:52:36;;;;;;;5.53;2.20;;;;;;;;;;5029328;28;20043;-70
2022/10/03 10:55:20;;;;;;;4.78;1.70;;;;;;;;;;5029308;28;20029;-70
2022/10/03 10:58:04;;;;;;;6.15;2.40;;;;;;;;;;5033977;28;20040;-71
2022/10/03 11:00:48;;;;;;;6.25;2.15;;;;;;;;;;5030388;28;20072;-70
2022/10/03 11:03:26;;;;;;;5.78;2.10;;;;;;;;;;5029007;28;20506;-71
2022/10/03 11:05:51;;;;;;;10.02;2.05;;;;;;;;;;5027224;28;20076;-70
2022/10/03 11:08:33;;;;;;;7.27;2.03;;;;;;;;;;5029287;28;20065;-70
2022/10/03 11:11:10;;;;;;;4.90;1.92;;;;;;;;;;5026225;28;20074;-70
2022/10/03 11:13:48;;;;;;;6.40;1.90;;;;;;;;;;5063539;27;20106;-70
2022/10/03 11:16:34;;;;;;;6.72;2.15;;;;;;;;;;5112478;27;20075;-70
2022/10/03 11:19:18;;;;;;;10.18;1.90;;;;;;;;;;5116371;27;20376;-70
2022/10/03 11:22:03;;;;;;;6.78;1.80;;;;;;;;;;5118600;27;20051;-70
2022/10/03 11:24:31;;;;;;;3.83;1.70;;;;;;;;;;5118602;27;20435;-70
2022/10/03 11:27:15;;;;;;;5.78;1.85;;;;;;;;;;5103288;27;20046;-70
2022/10/03 11:29:46;;;;;;;8.23;1.60;;;;;;;;;;5118173;27;20027;-70
2022/10/03 11:32:14;;;;;;;5.60;1.60;;;;;;;;;;5115613;27;20027;-70
2022/10/03 11:34:48;;;;;;;6.05;1.60;;;;;;;;;;5113119;27;20050;-70
2022/10/03 11:37:33;;;;;;;5.05;1.27;;;;;;;;;;5109451;27;20027;-70
2022/10/03 11:40:31;;;;;;;5.85;1.73;;;;;;;16.10;nan;100573.66;5108159;28;20019;-70
2022/10/03 11:43:15;;;;;;;4.80;1.80;;;;;;;;;;5119772;27;20034;-71
2022/10/03 11:45:45;;;;;;;3.90;1.30;;;;;;;;;;5117737;27;20016;-71
2022/10/03 11:48:21;;;;;;;3.80;1.50;;;;;;;;;;5117033;27;20020;-71
2022/10/03 11:50:50;;;;;;;4.13;1.45;;;;;;;;;;5112818;27;20034;-71
2022/10/03 11:53:18;;;;;;;4.03;1.33;;;;;;;;;;5109548;27;20497;-71
2022/10/03 11:55:50;;;;;;;5.40;1.75;;;;;;;;;;5119327;27;20110;-71
2022/10/03 11:58:24;;;;;;;13.27;2.15;;;;;;;;;;5121772;27;20023;-71
2022/10/03 12:01:06;;;;;;;3.58;1.60;;;;;;;;;;5112902;27;20051;-69
2022/10/03 12:03:35;;;;;;;10.63;1.77;;;;;;;;;;5112688;27;20390;-69
2022/10/03 12:09:06;;;;;;;5.30;1.48;;;;;;;;;;5113955;27;20099;-69
2022/10/03 12:11:50;;;;;;;6.35;1.60;;;;;;;;;;5118390;27;20019;-68
2022/10/03 12:14:27;;;;;;;5.15;1.52;;;;;;;;;;5121122;27;20028;-68
2022/10/03 12:16:56;;;;;;;6.78;2.00;;;;;;;;;;5120271;27;20019;-67
2022/10/03 12:19:32;;;;;;;10.68;1.77;;;;;;;;;;5120949;27;20031;-71
2022/10/03 12:22:16;;;;;;;7.78;2.10;;;;;;;;;;5117560;27;20591;-67
2022/10/03 12:24:43;;;;;;;7.47;1.33;;;;;;;;;;5114024;27;20020;-67
2022/10/03 12:27:09;;;;;;;3.97;1.38;;;;;;;;;;5117804;27;20048;-68
2022/10/03 12:29:37;;;;;;;4.17;1.30;;;;;;;;;;5108943;27;20042;-68
2022/10/03 12:32:04;;;;;;;6.10;1.27;;;;;;;;;;5118041;27;20170;-69
2022/10/03 12:34:30;;;;;;;5.45;1.40;;;;;;;;;;5116613;27;20016;-71
2022/10/03 12:37:18;;;;;;;5.10;1.87;;;;;;;;;;5113591;27;20027;-69
2022/10/03 12:40:05;;;;;;;7.25;1.70;;;;;;;;;;5117514;27;20019;-69
2022/10/03 12:42:33;;;;;;;4.20;1.40;;;;;;;;;;5103918;27;20036;-69
2022/10/03 12:45:01;;;;;;;5.35;1.20;;;;;;;;;;5113337;27;20024;-69
2022/10/03 12:47:47;;;;;;;6.28;1.92;;;;;;;;;;5115102;28;20028;-69
2022/10/03 12:50:12;;;;;;;5.43;1.40;;;;;;;;;;5114776;28;20144;-69
2022/10/03 12:52:56;;;;;;;3.65;1.70;;;;;;;;;;5114341;28;20110;-68
2022/10/03 12:55:35;;;;;;;5.00;1.30;;;;;;;;;;5114043;28;20545;-68
2022/10/03 12:58:06;;;;;;;7.38;2.10;;;;;;;;;;5115913;28;20039;-68
2022/10/03 13:00:40;;;;;;;7.28;2.15;;;;;;;;;;5116962;28;20023;-69
2022/10/03 13:03:21;;;;;;;14.50;6.93;;;;;;;;;;5114718;28;20019;-71
2022/10/03 13:05:59;;;;;;;31.80;18.23;;;;;;;;;;5119790;28;20015;-69
2022/10/03 13:08:43;;;;;;;111.38;57.05;;;;;;;;;;5111989;28;20024;-67
2022/10/03 13:11:20;;;;;;;107.20;54.92;;;;;;;;;;5117115;28;20018;-68
2022/10/03 13:13:57;;;;;;;60.58;31.38;;;;;;;;;;5116357;28;20030;-68
2022/10/03 13:16:22;;;;;;;105.25;56.13;;;;;;;;;;5114020;28;20131;-68
2022/10/03 13:18:47;;;;;;;71.00;41.37;;;;;;;;;;5112451;28;20481;-69
2022/10/03 13:21:12;;;;;;;75.13;40.53;;;;;;;;;;5110803;28;20098;-70
2022/10/03 13:23:41;;;;;;;38.13;24.03;;;;;;;;;;5110655;28;20113;-70
2022/10/03 13:26:09;;;;;;;25.30;12.95;;;;;;;;;;5101978;28;20700;-68
2022/10/03 13:28:43;;;;;;;5.65;2.08;;;;;;;;;;5111079;28;20505;-68
2022/10/03 13:31:30;;;;;;;6.85;1.45;;;;;;;;;;5114926;28;20093;-68
2022/10/03 13:33:57;;;;;;;4.63;1.70;;;;;;;;;;5117195;28;20080;-68
2022/10/03 13:36:33;;;;;;;6.68;3.13;;;;;;;;;;5119430;27;20038;-69
2022/10/03 13:39:02;;;;;;;41.53;21.23;;;;;;;;;;5105654;27;20369;-71
2022/10/03 13:41:29;;;;;;;147.82;71.03;;;;;;;;;;5119633;27;20031;-68
2022/10/03 13:43:58;;;;;;;110.70;55.22;;;;;;;;;;5120232;27;20051;-69
2022/10/03 13:46:30;;;;;;;76.05;39.80;;;;;;;;;;5107967;27;20743;-68
2022/10/03 13:48:59;;;;;;;62.13;39.33;;;;;;;;;;5116192;27;20036;-68
2022/10/03 13:51:35;;;;;;;52.75;37.63;;;;;;;;;;5119268;27;20091;-69
2022/10/03 13:54:03;;;;;;;23.73;15.85;;;;;;;;;;5115847;27;20020;-71
2022/10/03 13:56:29;;;;;;;13.60;7.97;;;;;;;;;;5120073;27;20035;-68
2022/10/03 13:58:54;;;;;;;21.33;8.80;;;;;;;;;;5117033;27;20492;-70
2022/10/03 14:01:38;;;;;;;9.43;4.78;;;;;;;;;;5119011;27;20485;-68
2022/10/03 14:04:04;;;;;;;7.57;2.30;;;;;;;;;;5119571;27;20446;-67
2022/10/03 14:06:50;;;;;;;8.75;3.30;;;;;;;;;;5123276;27;20102;-67
2022/10/03 14:09:18;;;;;;;8.30;2.17;;;;;;;;;;5120708;27;20023;-67
2022/10/03 14:11:46;;;;;;;5.78;1.60;;;;;;;;;;5113230;27;20036;-68
2022/10/03 14:14:23;;;;;;;5.82;1.73;;;;;;;;;;5119252;27;20019;-69
2022/10/03 14:17:01;;;;;;;5.82;1.50;;;;;;;;;;5117804;27;20064;-69
2022/10/03 14:19:38;;;;;;;72.38;36.75;;;;;;;;;;5115466;27;20080;-69
2022/10/03 14:22:12;;;;;;;70.60;41.78;;;;;;;;;;5120584;27;20027;-68
2022/10/03 14:24:49;;;;;;;23.02;16.58;;;;;;;;;;5119424;27;20028;-68
2022/10/03 14:27:41;;;;;;;15.93;6.93;;;;;;;;;;5117561;27;20104;-67
2022/10/03 14:30:18;;;;;;;3.95;2.20;;;;;;;;;;5084174;27;20047;-67
2022/10/03 14:32:52;;;;;;;3.55;2.35;;;;;;;;;;5120277;27;20058;-67
2022/10/03 14:35:37;;;;;;;6.53;1.77;;;;;;;;;;5115481;27;20080;-68
2022/10/03 14:38:05;;;;;;;10.25;2.38;;;;;;;;;;5118484;27;20019;-67
2022/10/03 14:40:50;;;;;;;7.10;2.28;;;;;;;;;;5105789;27;20050;-68
2022/10/03 14:43:21;;;;;;;5.25;1.90;;;;;;;;;;5116889;27;20125;-67
2022/10/03 14:45:48;;;;;;;6.75;1.90;;;;;;;;;;5111602;27;20031;-68
2022/10/03 14:48:16;;;;;;;6.30;1.88;;;;;;;;;;5117690;27;20041;-68
2022/10/03 14:50:42;;;;;;;8.93;2.22;;;;;;;;;;5115280;27;20063;-69
2022/10/03 14:53:14;;;;;;;6.03;1.80;;;;;;;;;;5114426;27;20023;-67
2022/10/03 14:55:45;;;;;;;16.05;2.20;;;;;;;;;;5124558;27;20030;-68
2022/10/03 14:58:19;;;;;;;6.07;2.10;;;;;;;;;;5119860;27;20110;-67
2022/10/03 15:00:48;;;;;;;10.73;2.00;;;;;;;;;;5119631;27;20115;-68
2022/10/03 15:03:19;;;;;;;5.05;1.80;;;;;;;;;;5118946;27;20427;-68
2022/10/03 15:06:03;;;;;;;5.40;1.95;;;;;;;;;;5120254;27;20031;-67
2022/10/03 15:10:56;;;;;;;20.00;3.03;;;;;;;;;;4980880;28;20081;-70
2022/10/03 15:13:22;;;;;;;6.68;1.65;;;;;;;;;;4987728;28;20093;-70
2022/10/03 15:15:49;;;;;;;10.15;1.67;;;;;;;;;;4990394;28;20031;-71
2022/10/03 15:18:16;;;;;;;8.63;1.90;;;;;;;;;;5002792;28;20031;-69
2022/10/03 15:20:44;;;;;;;8.45;1.80;;;;;;;15.77;nan;100641.94;4992683;28;20069;-70
2022/10/03 15:23:20;;;;;;;7.88;2.53;;;;;;;;;;4987664;28;20025;-70
2022/10/03 15:25:52;;;;;;;8.60;1.95;;;;;;;;;;4987875;28;20531;-69
2022/10/03 15:28:20;;;;;;;9.05;2.03;;;;;;;;;;4985272;28;20081;-69
2022/10/03 15:30:46;;;;;;;7.65;2.20;;;;;;;;;;4999876;28;20030;-70
2022/10/03 15:33:16;;;;;;;8.57;1.90;;;;;;;;;;4990014;28;20048;-69
2022/10/03 15:35:44;;;;;;;5.20;1.90;;;;;;;;;;4989441;28;20054;-69
2022/10/03 15:38:12;;;;;;;3.85;1.33;;;;;;;;;;4990862;28;20525;-70
2022/10/03 15:40:38;;;;;;;7.38;1.80;;;;;;;;;;4990839;28;20030;-68
2022/10/03 15:43:07;;;;;;;8.10;2.20;;;;;;;;;;4987747;28;20476;-71